Fortune Amaryllis — VRDT3 — position and weather

sailwx.info

Track history (hours):
 
Tides and Currents Weather Stations Pressure Air Temp Water Temp Dewpoint Dewpoint Depression Visibility Wind Speed Wind Dir Waves Ship Positions

Fortune Amaryllis

Last reported at 2015-Jul-26 20:33 UTC. Time now 2015-Jul-29 22:00 UTC.
Position N 30°45' E 123°29'.

Length 175 m; draft 10 m.

Type: Cargo ship. MMSI: 477046800.

Date/timePositionNaut miles runAvg speedWind from/ knotsBaromVisibWave heightAir tempDewpointWater temp
2015-Jul-26 20:33N 30°45' E 123°29'1010.3
2015-Jul-26 19:33N 30°54' E 123°23'1010.3
2015-Jul-26 18:33N 31°00' E 123°13'1110.9
2015-Jul-26 17:32N 31°03' E 123°01'1111.0
2015-Jul-26 16:33N 31°05' E 122°48'1111.1
2015-Jul-26 15:32N 31°05' E 122°35'1010.7
2015-Jul-26 14:33N 31°06' E 122°23'1312.5
2015-Jul-26 13:33N 31°11' E 122°10'1211.8
2015-Jul-26 12:33N 31°15' E 121°57'1111.1
2015-Jul-26 11:33N 31°19' E 121°44'9 9.4
2015-Jul-26 10:33N 31°23' E 121°35'8 8.1
2015-Jul-26 09:33N 31°28' E 121°27'1212.2
2015-Jul-26 08:33N 31°36' E 121°17'1514.4
2015-Jul-26 07:32N 31°46' E 121°03'6 1.2
2015-Jul-26 02:16N 31°49' E 120°57'0 0.0
2015-Jul-26 01:04N 31°49' E 120°57'0 0.0
2015-Jul-25 09:28N 31°49' E 120°57'0 0.0
2015-Jul-25 08:28N 31°49' E 120°57'0 0.0
2015-Jul-25 02:28N 31°49' E 120°57'0 0.1
2015-Jul-25 01:28N 31°49' E 120°57'0 0.0
2015-Jul-24 07:18N 31°49' E 120°57'2 2.2
2015-Jul-24 06:31N 31°47' E 120°56'9 9.7
2015-Jul-24 05:33N 31°56' E 120°53'0 0.1
2015-Jul-24 04:28N 31°56' E 120°53'0 0.1
2015-Jul-24 03:22N 31°56' E 120°53'0 0.0
2015-Jul-24 02:28N 31°56' E 120°53'0 0.0
2015-Jul-24 01:22N 31°56' E 120°53'0 0.0
2015-Jul-24 00:28N 31°56' E 120°53'0 0.1
2015-Jul-23 23:28N 31°56' E 120°53'0 0.0
2015-Jul-23 22:10N 31°56' E 120°53'0 0.0
2015-Jul-23 21:22N 31°56' E 120°53'0 0.0
2015-Jul-23 20:31N 31°56' E 120°53'0 0.0
2015-Jul-23 19:28N 31°56' E 120°53'0 0.0
2015-Jul-23 18:28N 31°56' E 120°53'0 0.0
2015-Jul-23 17:28N 31°56' E 120°53'0 0.0
2015-Jul-23 16:31N 31°56' E 120°53'0 0.0
2015-Jul-23 15:31N 31°56' E 120°53'0 0.0
2015-Jul-23 14:16N 31°56' E 120°53'0 0.0
2015-Jul-23 13:28N 31°56' E 120°53'0 0.0
2015-Jul-23 11:28N 31°56' E 120°53'0 0.0
2015-Jul-23 10:10N 31°56' E 120°53'0 0.0
2015-Jul-23 09:28N 31°56' E 120°53'0 0.0
2015-Jul-23 08:29N 31°56' E 120°53'0 0.0
2015-Jul-23 07:22N 31°56' E 120°53'0 0.0
2015-Jul-23 06:31N 31°56' E 120°53'0 0.0
2015-Jul-23 05:28N 31°56' E 120°53'0 0.0
2015-Jul-23 04:25N 31°56' E 120°53'0 0.0
2015-Jul-23 03:31N 31°56' E 120°53'0 0.0
2015-Jul-23 02:31N 31°56' E 120°53'0 0.0
2015-Jul-23 01:31N 31°56' E 120°53'0 0.0
2015-Jul-23 00:28N 31°56' E 120°53'0 0.0
2015-Jul-22 23:31N 31°56' E 120°53'0 0.0
2015-Jul-22 22:28N 31°56' E 120°53'0 0.0
2015-Jul-22 21:28N 31°56' E 120°53'0 0.0
2015-Jul-22 20:31N 31°56' E 120°53'0 0.0
2015-Jul-22 19:28N 31°56' E 120°53'0 0.0
2015-Jul-22 18:31N 31°56' E 120°53'0 0.0
2015-Jul-22 17:31N 31°56' E 120°53'0 0.0
2015-Jul-22 16:28N 31°56' E 120°53'0 0.0
2015-Jul-22 15:31N 31°56' E 120°53'0 0.0
2015-Jul-22 14:28N 31°56' E 120°53'0 0.0
2015-Jul-22 13:28N 31°56' E 120°53'0 0.0
2015-Jul-22 12:31N 31°56' E 120°53'0 0.0
2015-Jul-22 11:31N 31°56' E 120°53'0 0.1
2015-Jul-22 10:31N 31°56' E 120°53'0 0.0
2015-Jul-22 09:31N 31°56' E 120°53'0 0.1
2015-Jul-22 08:31N 31°56' E 120°53'0 0.0
2015-Jul-22 07:28N 31°56' E 120°53'0 0.0
2015-Jul-22 06:31N 31°56' E 120°53'0 0.0
2015-Jul-22 05:16N 31°56' E 120°53'0 0.0
2015-Jul-22 04:29N 31°56' E 120°53'0 0.0
2015-Jul-22 03:31N 31°56' E 120°53'0 0.0
2015-Jul-22 02:31N 31°56' E 120°53'0 0.0
2015-Jul-22 01:31N 31°56' E 120°53'0 0.0
2015-Jul-22 00:28N 31°56' E 120°53'0 0.1
2015-Jul-21 23:31N 31°56' E 120°53'0 0.0
2015-Jul-21 22:31N 31°56' E 120°53'0 0.0
2015-Jul-21 21:31N 31°56' E 120°53'0 0.0
2015-Jul-21 20:33N 31°56' E 120°53'1 1.0
2015-Jul-21 19:32N 31°56' E 120°52'1 1.1
2015-Jul-21 18:32N 31°56' E 120°53'0 0.0
2015-Jul-21 17:32N 31°56' E 120°53'0 0.3
2015-Jul-21 16:32N 31°56' E 120°53'0 0.1
2015-Jul-21 15:32N 31°56' E 120°53'0 0.0
2015-Jul-21 14:20N 31°56' E 120°53'0 0.0
2015-Jul-21 13:26N 31°56' E 120°53'0 0.0
2015-Jul-21 12:26N 31°56' E 120°53'0 0.0
2015-Jul-21 11:26N 31°56' E 120°53'0 0.1
2015-Jul-21 10:32N 31°56' E 120°53'0 0.0
2015-Jul-21 09:26N 31°56' E 120°53'0 0.0
2015-Jul-21 08:32N 31°56' E 120°53'0 0.0
2015-Jul-21 07:32N 31°56' E 120°53'0 0.0
2015-Jul-21 06:20N 31°56' E 120°53'0 0.0
2015-Jul-21 05:26N 31°56' E 120°53'0 0.0
2015-Jul-21 04:32N 31°56' E 120°53'0 0.0
2015-Jul-21 03:32N 31°56' E 120°53'0 0.0
2015-Jul-21 02:32N 31°56' E 120°53'0 0.0
2015-Jul-21 01:20N 31°56' E 120°53'0 0.0
2015-Jul-21 00:32N 31°56' E 120°53'0 0.0
2015-Jul-20 23:29N 31°56' E 120°53'0 0.1
2015-Jul-20 22:32N 31°56' E 120°53'0 0.1
2015-Jul-20 21:32N 31°56' E 120°53'0 0.0
2015-Jul-20 20:23N 31°56' E 120°53'0 0.0
2015-Jul-20 19:32N 31°56' E 120°53'0 0.0
2015-Jul-20 18:17N 31°56' E 120°53'0 0.0
2015-Jul-20 17:32N 31°56' E 120°53'0 0.0
2015-Jul-20 16:32N 31°56' E 120°53'0 0.0
2015-Jul-20 15:29N 31°56' E 120°53'0 0.0
2015-Jul-20 14:23N 31°56' E 120°53'0 0.0
2015-Jul-20 13:08N 31°56' E 120°53'0 0.0
2015-Jul-20 12:26N 31°56' E 120°53'0 0.0
2015-Jul-20 11:29N 31°56' E 120°53'0 0.0
2015-Jul-20 10:32N 31°56' E 120°53'0 0.1
2015-Jul-20 09:32N 31°56' E 120°53'0 0.1
2015-Jul-20 08:32N 31°56' E 120°53'0 0.1
2015-Jul-20 07:32N 31°56' E 120°53'0 0.0
2015-Jul-20 06:32N 31°56' E 120°53'0 0.1
2015-Jul-20 05:33N 31°56' E 120°53'1 0.8
2015-Jul-20 04:29N 31°55' E 120°53'0 0.0
2015-Jul-20 03:29N 31°55' E 120°53'0 0.0
2015-Jul-20 02:32N 31°55' E 120°53'0 0.0
2015-Jul-20 01:32N 31°55' E 120°53'0 0.0
2015-Jul-20 00:26N 31°55' E 120°53'0 0.1
2015-Jul-19 23:32N 31°55' E 120°53'0 0.0
2015-Jul-19 22:32N 31°55' E 120°53'0 0.0
2015-Jul-19 21:29N 31°55' E 120°53'0 0.1
2015-Jul-19 20:29N 31°55' E 120°53'0 0.0
2015-Jul-19 19:30N 31°55' E 120°53'0 0.1
2015-Jul-19 18:32N 31°55' E 120°53'0 0.0
2015-Jul-19 17:29N 31°55' E 120°53'0 0.0
2015-Jul-19 16:29N 31°55' E 120°53'0 0.0
2015-Jul-19 15:29N 31°55' E 120°53'0 0.0
2015-Jul-19 14:23N 31°55' E 120°53'0 0.1
2015-Jul-19 13:23N 31°55' E 120°53'4 4.2
2015-Jul-19 12:33N 31°52' E 120°54'1010.4
2015-Jul-19 11:33N 31°46' E 121°04'1111.2
2015-Jul-19 10:33N 31°39' E 121°14'1 0.6
2015-Jul-19 09:26N 31°39' E 121°15'0 0.1
2015-Jul-19 08:32N 31°39' E 121°15'0 0.1
2015-Jul-19 07:29N 31°39' E 121°15'0 0.0
2015-Jul-19 06:32N 31°39' E 121°15'0 0.0
2015-Jul-19 05:23N 31°39' E 121°15'0 0.2
2015-Jul-19 04:32N 31°39' E 121°15'0 0.0
2015-Jul-19 00:32N 31°39' E 121°15'0 0.0
2015-Jul-18 23:32N 31°39' E 121°15'0 0.0
2015-Jul-18 22:29N 31°39' E 121°15'0 0.0
2015-Jul-18 21:29N 31°39' E 121°15'0 0.2
2015-Jul-18 20:29N 31°39' E 121°15'0 0.0
2015-Jul-18 19:32N 31°39' E 121°15'0 0.0
2015-Jul-18 18:32N 31°39' E 121°15'0 0.0
2015-Jul-18 17:29N 31°39' E 121°15'0 0.0
2015-Jul-18 16:32N 31°39' E 121°15'0 0.2
2015-Jul-18 15:29N 31°39' E 121°15'0 0.1
2015-Jul-18 14:32N 31°39' E 121°15'0 0.0
2015-Jul-18 13:29N 31°39' E 121°15'0 0.0
2015-Jul-18 12:29N 31°39' E 121°15'0 0.0
2015-Jul-18 11:32N 31°39' E 121°15'0 0.0
2015-Jul-18 10:23N 31°39' E 121°15'0 0.0
2015-Jul-18 09:32N 31°39' E 121°15'0 0.2
2015-Jul-18 08:32N 31°39' E 121°15'0 0.0
2015-Jul-18 07:29N 31°39' E 121°15'0 0.0
2015-Jul-18 06:32N 31°39' E 121°15'0 0.0
2015-Jul-18 05:32N 31°39' E 121°15'0 0.1
2015-Jul-18 04:26N 31°39' E 121°15'0 0.2
2015-Jul-18 03:32N 31°39' E 121°15'0 0.0
2015-Jul-18 02:32N 31°39' E 121°15'0 0.0
2015-Jul-18 01:32N 31°39' E 121°15'0 0.0
2015-Jul-18 00:32N 31°39' E 121°15'0 0.0
2015-Jul-17 23:32N 31°39' E 121°15'0 0.1
2015-Jul-17 22:29N 31°39' E 121°15'0 0.1
2015-Jul-17 21:29N 31°39' E 121°15'0 0.2
2015-Jul-17 20:32N 31°39' E 121°15'0 0.0
2015-Jul-17 19:26N 31°39' E 121°15'0 0.0
2015-Jul-17 18:29N 31°39' E 121°15'0 0.0
2015-Jul-17 17:32N 31°39' E 121°15'0 0.0
2015-Jul-17 16:32N 31°39' E 121°15'0 0.0
2015-Jul-17 15:29N 31°39' E 121°15'0 0.3
2015-Jul-17 14:32N 31°39' E 121°15'0 0.0
2015-Jul-17 13:32N 31°39' E 121°15'0 0.0
2015-Jul-17 12:29N 31°39' E 121°15'0 0.0
2015-Jul-17 11:32N 31°39' E 121°15'1 1.0
2015-Jul-17 10:33N 31°38' E 121°14'0 0.2
2015-Jul-17 09:27N 31°38' E 121°14'0 0.0
2015-Jul-17 08:21N 31°38' E 121°14'0 0.0
2015-Jul-17 06:30N 31°38' E 121°14'0 0.0
2015-Jul-17 05:24N 31°38' E 121°14'0 0.0
2015-Jul-17 04:33N 31°38' E 121°14'0 0.0
2015-Jul-17 03:33N 31°38' E 121°14'0 0.0
2015-Jul-17 02:30N 31°38' E 121°14'0 0.0
2015-Jul-17 01:33N 31°38' E 121°14'0 0.0
2015-Jul-17 00:33N 31°38' E 121°14'0 0.0
2015-Jul-16 23:33N 31°38' E 121°14'0 0.0
2015-Jul-16 22:27N 31°38' E 121°14'0 0.0
2015-Jul-16 21:33N 31°38' E 121°14'  
Track history (hours):
 
Tides and Currents Weather Stations Pressure Air Temp Water Temp Dewpoint Dewpoint Depression Visibility Wind Speed Wind Dir Waves Ship Positions

Fortune Amaryllis

Last reported at 2015-Jul-26 20:33 UTC. Time now 2015-Jul-29 22:00 UTC.
Position N 30°45' E 123°29'.

Length 175 m; draft 10 m.

Type: Cargo ship. MMSI: 477046800.

Date/timePositionNaut miles runAvg speedWind from/ knotsBaromVisibWave heightAir tempDewpointWater temp
2015-Jul-26 20:33N 30°45' E 123°29'1010.3
2015-Jul-26 19:33N 30°54' E 123°23'1010.3
2015-Jul-26 18:33N 31°00' E 123°13'1110.9
2015-Jul-26 17:32N 31°03' E 123°01'1111.0
2015-Jul-26 16:33N 31°05' E 122°48'1111.1
2015-Jul-26 15:32N 31°05' E 122°35'1010.7
2015-Jul-26 14:33N 31°06' E 122°23'1312.5
2015-Jul-26 13:33N 31°11' E 122°10'1211.8
2015-Jul-26 12:33N 31°15' E 121°57'1111.1
2015-Jul-26 11:33N 31°19' E 121°44'9 9.4
2015-Jul-26 10:33N 31°23' E 121°35'8 8.1
2015-Jul-26 09:33N 31°28' E 121°27'1212.2
2015-Jul-26 08:33N 31°36' E 121°17'1514.4
2015-Jul-26 07:32N 31°46' E 121°03'6 1.2
2015-Jul-26 02:16N 31°49' E 120°57'0 0.0
2015-Jul-26 01:04N 31°49' E 120°57'0 0.0
2015-Jul-25 09:28N 31°49' E 120°57'0 0.0
2015-Jul-25 08:28N 31°49' E 120°57'0 0.0
2015-Jul-25 02:28N 31°49' E 120°57'0 0.1
2015-Jul-25 01:28N 31°49' E 120°57'0 0.0
2015-Jul-24 07:18N 31°49' E 120°57'2 2.2
2015-Jul-24 06:31N 31°47' E 120°56'9 9.7
2015-Jul-24 05:33N 31°56' E 120°53'0 0.1
2015-Jul-24 04:28N 31°56' E 120°53'0 0.1
2015-Jul-24 03:22N 31°56' E 120°53'0 0.0
2015-Jul-24 02:28N 31°56' E 120°53'0 0.0
2015-Jul-24 01:22N 31°56' E 120°53'0 0.0
2015-Jul-24 00:28N 31°56' E 120°53'0 0.1
2015-Jul-23 23:28N 31°56' E 120°53'0 0.0
2015-Jul-23 22:10N 31°56' E 120°53'0 0.0
2015-Jul-23 21:22N 31°56' E 120°53'0 0.0
2015-Jul-23 20:31N 31°56' E 120°53'0 0.0
2015-Jul-23 19:28N 31°56' E 120°53'0 0.0
2015-Jul-23 18:28N 31°56' E 120°53'0 0.0
2015-Jul-23 17:28N 31°56' E 120°53'0 0.0
2015-Jul-23 16:31N 31°56' E 120°53'0 0.0
2015-Jul-23 15:31N 31°56' E 120°53'0 0.0
2015-Jul-23 14:16N 31°56' E 120°53'0 0.0
2015-Jul-23 13:28N 31°56' E 120°53'0 0.0
2015-Jul-23 11:28N 31°56' E 120°53'0 0.0
2015-Jul-23 10:10N 31°56' E 120°53'0 0.0
2015-Jul-23 09:28N 31°56' E 120°53'0 0.0
2015-Jul-23 08:29N 31°56' E 120°53'0 0.0
2015-Jul-23 07:22N 31°56' E 120°53'0 0.0
2015-Jul-23 06:31N 31°56' E 120°53'0 0.0
2015-Jul-23 05:28N 31°56' E 120°53'0 0.0
2015-Jul-23 04:25N 31°56' E 120°53'0 0.0
2015-Jul-23 03:31N 31°56' E 120°53'0 0.0
2015-Jul-23 02:31N 31°56' E 120°53'0 0.0
2015-Jul-23 01:31N 31°56' E 120°53'0 0.0
2015-Jul-23 00:28N 31°56' E 120°53'0 0.0
2015-Jul-22 23:31N 31°56' E 120°53'0 0.0
2015-Jul-22 22:28N 31°56' E 120°53'0 0.0
2015-Jul-22 21:28N 31°56' E 120°53'0 0.0
2015-Jul-22 20:31N 31°56' E 120°53'0 0.0
2015-Jul-22 19:28N 31°56' E 120°53'0 0.0
2015-Jul-22 18:31N 31°56' E 120°53'0 0.0
2015-Jul-22 17:31N 31°56' E 120°53'0 0.0
2015-Jul-22 16:28N 31°56' E 120°53'0 0.0
2015-Jul-22 15:31N 31°56' E 120°53'0 0.0
2015-Jul-22 14:28N 31°56' E 120°53'0 0.0
2015-Jul-22 13:28N 31°56' E 120°53'0 0.0
2015-Jul-22 12:31N 31°56' E 120°53'0 0.0
2015-Jul-22 11:31N 31°56' E 120°53'0 0.1
2015-Jul-22 10:31N 31°56' E 120°53'0 0.0
2015-Jul-22 09:31N 31°56' E 120°53'0 0.1
2015-Jul-22 08:31N 31°56' E 120°53'0 0.0
2015-Jul-22 07:28N 31°56' E 120°53'0 0.0
2015-Jul-22 06:31N 31°56' E 120°53'0 0.0
2015-Jul-22 05:16N 31°56' E 120°53'0 0.0
2015-Jul-22 04:29N 31°56' E 120°53'0 0.0
2015-Jul-22 03:31N 31°56' E 120°53'0 0.0
2015-Jul-22 02:31N 31°56' E 120°53'0 0.0
2015-Jul-22 01:31N 31°56' E 120°53'0 0.0
2015-Jul-22 00:28N 31°56' E 120°53'0 0.1
2015-Jul-21 23:31N 31°56' E 120°53'0 0.0
2015-Jul-21 22:31N 31°56' E 120°53'0 0.0
2015-Jul-21 21:31N 31°56' E 120°53'0 0.0
2015-Jul-21 20:33N 31°56' E 120°53'1 1.0
2015-Jul-21 19:32N 31°56' E 120°52'1 1.1
2015-Jul-21 18:32N 31°56' E 120°53'0 0.0
2015-Jul-21 17:32N 31°56' E 120°53'0 0.3
2015-Jul-21 16:32N 31°56' E 120°53'0 0.1
2015-Jul-21 15:32N 31°56' E 120°53'0 0.0
2015-Jul-21 14:20N 31°56' E 120°53'0 0.0
2015-Jul-21 13:26N 31°56' E 120°53'0 0.0
2015-Jul-21 12:26N 31°56' E 120°53'0 0.0
2015-Jul-21 11:26N 31°56' E 120°53'0 0.1
2015-Jul-21 10:32N 31°56' E 120°53'0 0.0
2015-Jul-21 09:26N 31°56' E 120°53'0 0.0
2015-Jul-21 08:32N 31°56' E 120°53'0 0.0
2015-Jul-21 07:32N 31°56' E 120°53'0 0.0
2015-Jul-21 06:20N 31°56' E 120°53'0 0.0
2015-Jul-21 05:26N 31°56' E 120°53'0 0.0
2015-Jul-21 04:32N 31°56' E 120°53'0 0.0
2015-Jul-21 03:32N 31°56' E 120°53'0 0.0
2015-Jul-21 02:32N 31°56' E 120°53'0 0.0
2015-Jul-21 01:20N 31°56' E 120°53'0 0.0
2015-Jul-21 00:32N 31°56' E 120°53'0 0.0
2015-Jul-20 23:29N 31°56' E 120°53'0 0.1
2015-Jul-20 22:32N 31°56' E 120°53'0 0.1
2015-Jul-20 21:32N 31°56' E 120°53'0 0.0
2015-Jul-20 20:23N 31°56' E 120°53'0 0.0
2015-Jul-20 19:32N 31°56' E 120°53'0 0.0
2015-Jul-20 18:17N 31°56' E 120°53'0 0.0
2015-Jul-20 17:32N 31°56' E 120°53'0 0.0
2015-Jul-20 16:32N 31°56' E 120°53'0 0.0
2015-Jul-20 15:29N 31°56' E 120°53'0 0.0
2015-Jul-20 14:23N 31°56' E 120°53'0 0.0
2015-Jul-20 13:08N 31°56' E 120°53'0 0.0
2015-Jul-20 12:26N 31°56' E 120°53'0 0.0
2015-Jul-20 11:29N 31°56' E 120°53'0 0.0
2015-Jul-20 10:32N 31°56' E 120°53'0 0.1
2015-Jul-20 09:32N 31°56' E 120°53'0 0.1
2015-Jul-20 08:32N 31°56' E 120°53'0 0.1
2015-Jul-20 07:32N 31°56' E 120°53'0 0.0
2015-Jul-20 06:32N 31°56' E 120°53'0 0.1
2015-Jul-20 05:33N 31°56' E 120°53'1 0.8
2015-Jul-20 04:29N 31°55' E 120°53'0 0.0
2015-Jul-20 03:29N 31°55' E 120°53'0 0.0
2015-Jul-20 02:32N 31°55' E 120°53'0 0.0
2015-Jul-20 01:32N 31°55' E 120°53'0 0.0
2015-Jul-20 00:26N 31°55' E 120°53'0 0.1
2015-Jul-19 23:32N 31°55' E 120°53'0 0.0
2015-Jul-19 22:32N 31°55' E 120°53'0 0.0
2015-Jul-19 21:29N 31°55' E 120°53'0 0.1
2015-Jul-19 20:29N 31°55' E 120°53'0 0.0
2015-Jul-19 19:30N 31°55' E 120°53'0 0.1
2015-Jul-19 18:32N 31°55' E 120°53'0 0.0
2015-Jul-19 17:29N 31°55' E 120°53'0 0.0
2015-Jul-19 16:29N 31°55' E 120°53'0 0.0
2015-Jul-19 15:29N 31°55' E 120°53'0 0.0
2015-Jul-19 14:23N 31°55' E 120°53'0 0.1
2015-Jul-19 13:23N 31°55' E 120°53'4 4.2
2015-Jul-19 12:33N 31°52' E 120°54'1010.4
2015-Jul-19 11:33N 31°46' E 121°04'1111.2
2015-Jul-19 10:33N 31°39' E 121°14'1 0.6
2015-Jul-19 09:26N 31°39' E 121°15'0 0.1
2015-Jul-19 08:32N 31°39' E 121°15'0 0.1
2015-Jul-19 07:29N 31°39' E 121°15'0 0.0
2015-Jul-19 06:32N 31°39' E 121°15'0 0.0
2015-Jul-19 05:23N 31°39' E 121°15'0 0.2
2015-Jul-19 04:32N 31°39' E 121°15'0 0.0
2015-Jul-19 00:32N 31°39' E 121°15'0 0.0
2015-Jul-18 23:32N 31°39' E 121°15'0 0.0
2015-Jul-18 22:29N 31°39' E 121°15'0 0.0
2015-Jul-18 21:29N 31°39' E 121°15'0 0.2
2015-Jul-18 20:29N 31°39' E 121°15'0 0.0
2015-Jul-18 19:32N 31°39' E 121°15'0 0.0
2015-Jul-18 18:32N 31°39' E 121°15'0 0.0
2015-Jul-18 17:29N 31°39' E 121°15'0 0.0
2015-Jul-18 16:32N 31°39' E 121°15'0 0.2
2015-Jul-18 15:29N 31°39' E 121°15'0 0.1
2015-Jul-18 14:32N 31°39' E 121°15'0 0.0
2015-Jul-18 13:29N 31°39' E 121°15'0 0.0
2015-Jul-18 12:29N 31°39' E 121°15'0 0.0
2015-Jul-18 11:32N 31°39' E 121°15'0 0.0
2015-Jul-18 10:23N 31°39' E 121°15'0 0.0
2015-Jul-18 09:32N 31°39' E 121°15'0 0.2
2015-Jul-18 08:32N 31°39' E 121°15'0 0.0
2015-Jul-18 07:29N 31°39' E 121°15'0 0.0
2015-Jul-18 06:32N 31°39' E 121°15'0 0.0
2015-Jul-18 05:32N 31°39' E 121°15'0 0.1
2015-Jul-18 04:26N 31°39' E 121°15'0 0.2
2015-Jul-18 03:32N 31°39' E 121°15'0 0.0
2015-Jul-18 02:32N 31°39' E 121°15'0 0.0
2015-Jul-18 01:32N 31°39' E 121°15'0 0.0
2015-Jul-18 00:32N 31°39' E 121°15'0 0.0
2015-Jul-17 23:32N 31°39' E 121°15'0 0.1
2015-Jul-17 22:29N 31°39' E 121°15'0 0.1
2015-Jul-17 21:29N 31°39' E 121°15'0 0.2
2015-Jul-17 20:32N 31°39' E 121°15'0 0.0
2015-Jul-17 19:26N 31°39' E 121°15'0 0.0
2015-Jul-17 18:29N 31°39' E 121°15'0 0.0
2015-Jul-17 17:32N 31°39' E 121°15'0 0.0
2015-Jul-17 16:32N 31°39' E 121°15'0 0.0
2015-Jul-17 15:29N 31°39' E 121°15'0 0.3
2015-Jul-17 14:32N 31°39' E 121°15'0 0.0
2015-Jul-17 13:32N 31°39' E 121°15'0 0.0
2015-Jul-17 12:29N 31°39' E 121°15'0 0.0
2015-Jul-17 11:32N 31°39' E 121°15'1 1.0
2015-Jul-17 10:33N 31°38' E 121°14'0 0.2
2015-Jul-17 09:27N 31°38' E 121°14'0 0.0
2015-Jul-17 08:21N 31°38' E 121°14'0 0.0
2015-Jul-17 06:30N 31°38' E 121°14'0 0.0
2015-Jul-17 05:24N 31°38' E 121°14'0 0.0
2015-Jul-17 04:33N 31°38' E 121°14'0 0.0
2015-Jul-17 03:33N 31°38' E 121°14'0 0.0
2015-Jul-17 02:30N 31°38' E 121°14'0 0.0
2015-Jul-17 01:33N 31°38' E 121°14'0 0.0
2015-Jul-17 00:33N 31°38' E 121°14'0 0.0
2015-Jul-16 23:33N 31°38' E 121°14'0 0.0
2015-Jul-16 22:27N 31°38' E 121°14'0 0.0
2015-Jul-16 21:33N 31°38' E 121°14'  

Dump ship's entire track history